Time;durP1;ratioP1;P1;durP2;ratioP2;P2;SDS_P1;SDS_P2;PMS_P1;PMS_P2;Temp;Humidity;BMP_temperature;BMP_pressure;BME280_temperature;BME280_humidity;BME280_pressure;Samples;Min_cycle;Max_cycle;Signal;HPM_P1;HPM_P2
2021/07/19 00:11:51;;;;;;;5.90;5.40;;;20.90;99.90;;;;;;5051809;28;20226;-79
2021/07/19 00:17:00;;;;;;;9.35;8.48;;;20.70;99.90;;;;;;5063242;28;20247;-79
2021/07/19 00:19:27;;;;;;;28.75;26.65;;;20.60;99.90;;;;;;5041602;28;20198;-79
2021/07/19 00:21:55;;;;;;;31.73;30.00;;;20.50;99.90;;;;;;5064468;28;20202;-78
2021/07/19 00:24:22;;;;;;;36.90;34.72;;;20.60;99.90;;;;;;5051874;28;20755;-78
2021/07/19 00:26:50;;;;;;;756.40;702.47;;;20.50;99.90;;;;;;5049248;28;20237;-78
2021/07/19 00:29:16;;;;;;;796.83;738.72;;;20.60;99.90;;;;;;5059160;28;20206;-80
2021/07/19 00:31:45;;;;;;;8.30;7.22;;;20.60;99.90;;;;;;5059602;28;20202;-80
2021/07/19 00:34:12;;;;;;;7.13;4.57;;;20.30;99.90;;;;;;5052374;28;20199;-80
2021/07/19 00:36:39;;;;;;;4.70;4.30;;;20.20;99.90;;;;;;5048737;28;20228;-80
2021/07/19 00:39:08;;;;;;;6.55;4.43;;;20.20;99.90;;;;;;5053057;28;20197;-80
2021/07/19 00:41:35;;;;;;;7.35;4.22;;;20.10;99.90;;;;;;5055164;28;20199;-80
2021/07/19 00:44:01;;;;;;;13.25;4.50;;;20.10;99.90;;;;;;5062227;28;20194;-79
2021/07/19 00:46:29;;;;;;;7.28;4.18;;;20.10;99.90;;;;;;5056562;28;20230;-80
2021/07/19 00:48:57;;;;;;;7.10;4.28;;;20.00;99.90;;;;;;5061800;28;20236;-79
2021/07/19 00:51:24;;;;;;;6.43;4.75;;;20.00;99.90;;;;;;5062509;28;20221;-80
2021/07/19 00:53:51;;;;;;;11.23;5.10;;;20.00;99.90;;;;;;5048960;28;20237;-79
2021/07/19 00:56:28;;;;;;;4.80;4.28;;;20.00;99.90;;;;;;5061084;28;20206;-80
2021/07/19 01:01:41;;;;;;;9.98;4.93;;;19.70;99.90;;;;;;5067449;28;20216;-79
2021/07/19 01:09:36;;;;;;;7.70;4.43;;;19.40;99.90;;;;;;5059355;28;20209;-79
2021/07/19 01:12:04;;;;;;;6.82;5.40;;;19.10;99.90;;;;;;5057591;28;20229;-79
2021/07/19 01:14:31;;;;;;;8.25;4.80;;;19.00;99.90;;;;;;5065840;28;20202;-78
2021/07/19 01:19:53;;;;;;;6.85;5.57;;;19.10;99.90;;;;;;5053797;28;20260;-77
2021/07/19 01:22:36;;;;;;;7.78;4.95;;;19.20;99.90;;;;;;5052729;28;20251;-76
2021/07/19 01:25:19;;;;;;;8.60;6.43;;;19.00;99.90;;;;;;5052657;28;20210;-76
2021/07/19 01:33:30;;;;;;;17.05;15.70;;;18.90;99.90;;;;;;5047429;28;20206;-77
2021/07/19 01:36:00;;;;;;;18.20;17.05;;;18.90;99.90;;;;;;5057492;28;20207;-76
2021/07/19 01:38:28;;;;;;;19.95;18.60;;;18.90;99.90;;;;;;5048501;28;20198;-76
2021/07/19 01:40:57;;;;;;;12.48;11.45;;;18.80;99.90;;;;;;5061227;28;20621;-76
2021/07/19 01:43:25;;;;;;;17.52;16.15;;;18.70;99.90;;;;;;5063013;28;20201;-76
2021/07/19 01:45:54;;;;;;;12.02;10.55;;;18.50;99.90;;;;;;5048236;28;20202;-77
2021/07/19 01:48:22;;;;;;;10.68;9.90;;;18.50;99.90;;;;;;5047237;28;20218;-76
2021/07/19 01:50:50;;;;;;;8.38;7.68;;;18.50;99.90;;;;;;5053120;28;20278;-76
2021/07/19 01:53:18;;;;;;;9.75;8.90;;;18.50;99.90;;;;;;5047607;28;20198;-76
2021/07/19 01:55:46;;;;;;;9.60;8.88;;;18.60;99.90;;;;;;5054048;28;20206;-77
2021/07/19 01:58:14;;;;;;;13.75;9.73;;;18.70;99.90;;;;;;5061245;28;20549;-76
2021/07/19 02:00:42;;;;;;;12.30;11.48;;;18.70;99.90;;;;;;5063184;28;20636;-77
2021/07/19 02:03:10;;;;;;;12.20;11.20;;;18.80;99.90;;;;;;5047453;28;20238;-77
2021/07/19 02:05:38;;;;;;;11.10;7.95;;;18.70;99.90;;;;;;5054542;28;20259;-77
2021/07/19 02:08:06;;;;;;;11.70;10.50;;;18.50;99.90;;;;;;5064629;28;20238;-76
2021/07/19 02:10:35;;;;;;;7.57;5.85;;;18.40;99.90;;;;;;5056182;28;20266;-77
2021/07/19 02:13:05;;;;;;;9.35;4.00;;;18.20;99.90;;;;;;5054274;28;20194;-77
2021/07/19 02:15:33;;;;;;;6.78;4.53;;;18.20;99.90;;;;;;5047458;28;20198;-76
2021/07/19 02:18:03;;;;;;;7.55;4.70;;;18.40;99.90;;;;;;5050757;28;20221;-76
2021/07/19 02:20:33;;;;;;;6.30;5.03;;;18.40;99.90;;;;;;5061005;28;20220;-76
2021/07/19 02:23:02;;;;;;;4.00;3.40;;;18.30;99.90;;;;;;5055921;28;20229;-76
2021/07/19 02:25:29;;;;;;;7.43;4.32;;;18.30;99.90;;;;;;5058305;28;20224;-76
2021/07/19 02:27:57;;;;;;;9.50;4.38;;;18.30;99.90;;;;;;5063226;28;20229;-77
2021/07/19 02:30:26;;;;;;;5.88;4.40;;;18.30;99.90;;;;;;5047444;28;20202;-77
2021/07/19 02:32:57;;;;;;;7.30;4.63;;;18.20;99.90;;;;;;5046279;28;20202;-77
2021/07/19 02:35:26;;;;;;;9.85;4.50;;;18.20;99.90;;;;;;5061759;28;20229;-76
2021/07/19 02:37:58;;;;;;;9.63;4.05;;;18.00;99.90;;;;;;5058812;28;20240;-76
2021/07/19 02:40:27;;;;;;;12.23;4.85;;;18.00;99.90;;;;;;5057239;28;20201;-76
2021/07/19 02:42:58;;;;;;;7.25;4.68;;;18.00;99.90;;;;;;5064090;28;20202;-77
2021/07/19 02:45:27;;;;;;;6.03;4.35;;;18.20;99.90;;;;;;5053987;28;20224;-77
2021/07/19 02:47:55;;;;;;;6.45;3.88;;;18.10;99.90;;;;;;5056849;28;20283;-77
2021/07/19 02:50:25;;;;;;;5.25;4.75;;;18.00;99.90;;;;;;5054898;28;20203;-77
2021/07/19 02:52:57;;;;;;;6.63;4.85;;;18.00;99.90;;;;;;5059355;28;20265;-77
2021/07/19 02:55:25;;;;;;;6.88;4.75;;;17.80;99.90;;;;;;5055959;28;20563;-76
2021/07/19 02:57:52;;;;;;;6.30;4.47;;;17.80;99.90;;;;;;5061611;28;20202;-77
2021/07/19 03:00:20;;;;;;;8.38;4.70;;;17.90;99.90;;;;;;5054232;28;20202;-76
2021/07/19 03:02:52;;;;;;;6.85;6.15;;;18.00;99.90;;;;;;5056928;28;20881;-77
2021/07/19 03:05:22;;;;;;;7.80;5.45;;;18.00;99.90;;;;;;5062835;28;20288;-76
2021/07/19 03:07:57;;;;;;;9.20;4.72;;;18.00;99.90;;;;;;5055956;28;20229;-77
2021/07/19 03:10:27;;;;;;;5.63;4.88;;;18.00;99.90;;;;;;5061599;28;20201;-76
2021/07/19 03:13:02;;;;;;;5.85;5.35;;;17.90;99.90;;;;;;5053317;28;20210;-76
2021/07/19 03:15:32;;;;;;;5.20;4.80;;;18.00;99.90;;;;;;5057961;28;20198;-77
2021/07/19 03:18:02;;;;;;;7.93;5.93;;;18.00;99.90;;;;;;5054355;28;20198;-76
2021/07/19 03:20:30;;;;;;;7.97;5.60;;;18.00;99.90;;;;;;5060413;28;20198;-76
2021/07/19 03:23:00;;;;;;;7.35;5.80;;;17.90;99.90;;;;;;5050567;28;20266;-76
2021/07/19 03:25:27;;;;;;;10.27;9.13;;;17.70;99.90;;;;;;5054751;28;20376;-76
2021/07/19 03:27:55;;;;;;;10.77;9.88;;;17.70;99.90;;;;;;5050328;28;20276;-76
2021/07/19 03:30:23;;;;;;;9.93;8.00;;;17.70;99.90;;;;;;5054852;28;20600;-76
2021/07/19 03:32:51;;;;;;;10.15;9.40;;;17.80;99.90;;;;;;5062199;28;20292;-75
2021/07/19 03:35:20;;;;;;;10.65;9.55;;;17.80;99.90;;;;;;5055451;28;20201;-76
2021/07/19 03:37:48;;;;;;;7.57;4.40;;;17.80;99.90;;;;;;5053672;28;20554;-76
2021/07/19 03:40:20;;;;;;;7.38;5.22;;;17.90;99.90;;;;;;5055259;28;20225;-76
2021/07/19 03:42:48;;;;;;;8.73;8.02;;;17.90;99.90;;;;;;5053603;28;20268;-76
2021/07/19 03:45:16;;;;;;;7.93;7.20;;;17.90;99.90;;;;;;5061865;28;20202;-76
2021/07/19 03:47:44;;;;;;;7.68;7.07;;;17.90;99.90;;;;;;5055978;28;20284;-76
2021/07/19 03:50:12;;;;;;;10.40;9.27;;;17.90;99.90;;;;;;5062140;28;20198;-76
2021/07/19 03:52:40;;;;;;;10.35;9.30;;;17.90;99.90;;;;;;5054904;28;20201;-76
2021/07/19 03:55:08;;;;;;;16.33;15.30;;;17.80;99.90;;;;;;5058431;28;20209;-76
2021/07/19 03:57:38;;;;;;;14.25;12.93;;;17.80;99.90;;;;;;5050502;28;20265;-76
2021/07/19 04:00:07;;;;;;;7.95;7.07;;;17.80;99.90;;;;;;5055028;28;20194;-76
2021/07/19 04:02:36;;;;;;;11.38;5.70;;;17.80;99.90;;;;;;5056571;28;20233;-76
2021/07/19 04:05:06;;;;;;;7.85;5.63;;;17.70;99.90;;;;;;5060175;28;20224;-76
2021/07/19 04:07:36;;;;;;;8.13;6.55;;;17.70;99.90;;;;;;5061110;28;20226;-76
2021/07/19 04:10:06;;;;;;;8.70;6.00;;;17.70;99.90;;;;;;5055794;28;20553;-76
2021/07/19 04:12:33;;;;;;;8.90;7.88;;;17.80;99.90;;;;;;5058346;28;22196;-76
2021/07/19 04:15:04;;;;;;;6.97;6.43;;;17.80;99.90;;;;;;5057841;28;20202;-76
2021/07/19 04:17:31;;;;;;;8.85;6.30;;;17.80;99.90;;;;;;5061267;28;20206;-76
2021/07/19 04:20:00;;;;;;;14.23;7.55;;;17.90;99.90;;;;;;5054470;28;20253;-76
2021/07/19 04:22:27;;;;;;;11.82;6.97;;;17.90;99.90;;;;;;5062773;28;20206;-76
2021/07/19 04:24:54;;;;;;;13.40;8.95;;;17.90;99.90;;;;;;5051781;28;20260;-76
2021/07/19 04:27:22;;;;;;;8.80;7.03;;;17.90;99.90;;;;;;5059569;28;20232;-76
2021/07/19 04:29:50;;;;;;;18.00;10.05;;;18.00;99.90;;;;;;5061257;28;20203;-76
2021/07/19 04:32:21;;;;;;;10.65;9.55;;;18.00;99.90;;;;;;5062279;28;20265;-76
2021/07/19 04:34:49;;;;;;;12.30;10.45;;;18.00;99.90;;;;;;5049441;28;20224;-76
2021/07/19 04:37:16;;;;;;;11.45;9.75;;;18.00;99.90;;;;;;5052885;28;20206;-76
2021/07/19 04:39:43;;;;;;;13.80;12.45;;;18.00;99.90;;;;;;5053516;28;20317;-76
2021/07/19 04:42:11;;;;;;;11.88;10.73;;;18.00;99.90;;;;;;5050144;28;20194;-76
2021/07/19 04:44:39;;;;;;;15.30;13.95;;;18.00;99.90;;;;;;5048286;28;20210;-76
2021/07/19 04:47:07;;;;;;;16.60;14.82;;;18.00;99.90;;;;;;5054206;28;20199;-76
2021/07/19 04:49:37;;;;;;;19.70;14.63;;;18.00;99.90;;;;;;5051723;28;20656;-76
2021/07/19 04:52:05;;;;;;;19.60;17.70;;;18.00;99.90;;;;;;5055207;28;20205;-76
2021/07/19 04:54:38;;;;;;;15.40;13.20;;;18.00;99.90;;;;;;5048457;28;20197;-76
2021/07/19 04:57:07;;;;;;;15.38;13.98;;;18.10;99.90;;;;;;5058658;28;20228;-76
2021/07/19 04:59:40;;;;;;;17.30;14.32;;;18.20;99.90;;;;;;5054080;28;20197;-76
2021/07/19 05:02:11;;;;;;;15.57;13.52;;;18.30;99.90;;;;;;5053592;28;20230;-77
2021/07/19 05:04:40;;;;;;;17.83;13.93;;;18.30;99.90;;;;;;5052186;28;20279;-76
2021/07/19 05:07:10;;;;;;;17.30;15.50;;;18.40;99.90;;;;;;5065239;28;20202;-76
2021/07/19 05:09:40;;;;;;;17.17;15.57;;;18.50;99.90;;;;;;5057701;28;20248;-76
2021/07/19 05:12:10;;;;;;;16.60;12.45;;;18.60;99.90;;;;;;5058120;28;20206;-76
2021/07/19 05:14:40;;;;;;;18.05;14.65;;;18.60;99.90;;;;;;5053370;28;20210;-75
2021/07/19 05:17:10;;;;;;;13.57;8.70;;;18.60;99.90;;;;;;5054162;28;20233;-75
2021/07/19 05:19:40;;;;;;;23.88;12.23;;;18.60;99.90;;;;;;5053079;28;20293;-75
2021/07/19 05:22:10;;;;;;;15.55;10.77;;;18.60;99.90;;;;;;5062116;28;20591;-75
2021/07/19 05:24:37;;;;;;;12.75;9.82;;;18.60;99.90;;;;;;5053730;28;20999;-75
2021/07/19 05:27:06;;;;;;;15.57;10.77;;;18.60;99.90;;;;;;5060289;28;20232;-75
2021/07/19 05:29:34;;;;;;;13.63;10.10;;;18.70;99.90;;;;;;5059315;28;20229;-75
2021/07/19 05:32:01;;;;;;;14.82;10.00;;;18.70;99.90;;;;;;5053763;28;20206;-75
2021/07/19 05:34:28;;;;;;;15.98;10.32;;;18.70;99.90;;;;;;5053122;28;20202;-75
2021/07/19 05:36:56;;;;;;;13.30;11.20;;;18.70;99.90;;;;;;5060066;28;20210;-75
2021/07/19 05:39:23;;;;;;;14.02;8.77;;;18.80;99.90;;;;;;5055700;28;20198;-75
2021/07/19 05:41:50;;;;;;;18.70;9.02;;;18.90;99.90;;;;;;5060080;28;20202;-75
2021/07/19 05:44:17;;;;;;;12.82;8.77;;;19.00;99.90;;;;;;5050584;28;20224;-75
2021/07/19 05:46:44;;;;;;;19.55;10.07;;;19.00;99.90;;;;;;5047042;28;20198;-75
2021/07/19 05:49:11;;;;;;;18.25;10.23;;;19.00;99.90;;;;;;5053660;28;20271;-75
2021/07/19 05:51:38;;;;;;;20.02;9.52;;;19.00;99.90;;;;;;5051197;28;20201;-75
2021/07/19 05:54:07;;;;;;;17.55;10.57;;;19.00;99.90;;;;;;5047531;28;20198;-75
2021/07/19 05:56:35;;;;;;;18.38;9.43;;;19.10;99.90;;;;;;5052524;28;20258;-75
2021/07/19 05:59:02;;;;;;;20.75;10.60;;;19.20;99.90;;;;;;5051856;28;20210;-75
2021/07/19 06:01:29;;;;;;;22.38;11.13;;;19.30;99.90;;;;;;5053898;28;20194;-75
2021/07/19 06:03:56;;;;;;;16.27;9.80;;;19.30;99.90;;;;;;5052733;28;20253;-75
2021/07/19 06:06:23;;;;;;;19.17;9.70;;;19.30;99.90;;;;;;5049847;28;20668;-75
2021/07/19 06:08:50;;;;;;;15.20;9.98;;;19.30;99.90;;;;;;5055633;28;20222;-75
2021/07/19 06:11:18;;;;;;;18.05;9.82;;;19.30;99.90;;;;;;5058959;28;20197;-75
2021/07/19 06:13:45;;;;;;;14.43;9.48;;;19.30;99.90;;;;;;5058206;28;20209;-75
2021/07/19 06:16:12;;;;;;;19.90;13.23;;;19.40;99.90;;;;;;5064957;28;20225;-75
2021/07/19 06:18:39;;;;;;;21.75;12.85;;;19.50;99.90;;;;;;5057056;28;20199;-75
2021/07/19 06:21:06;;;;;;;21.75;13.20;;;19.70;99.90;;;;;;5054978;28;20248;-75
2021/07/19 06:23:32;;;;;;;14.25;10.02;;;19.70;99.90;;;;;;5050892;28;20202;-75
2021/07/19 06:25:59;;;;;;;16.63;11.05;;;19.50;99.90;;;;;;5055149;28;20198;-75
2021/07/19 06:28:28;;;;;;;19.50;12.40;;;19.50;99.90;;;;;;5058341;28;20225;-75
2021/07/19 06:30:55;;;;;;;16.75;12.07;;;19.40;99.90;;;;;;5059627;28;20202;-75
2021/07/19 06:33:22;;;;;;;17.90;11.88;;;19.40;99.90;;;;;;5058413;28;20202;-75
2021/07/19 06:35:48;;;;;;;16.63;11.13;;;19.40;99.90;;;;;;5057045;28;20202;-75
2021/07/19 06:38:15;;;;;;;16.85;10.15;;;19.50;99.90;;;;;;5058399;28;20201;-75
2021/07/19 06:40:42;;;;;;;16.92;9.25;;;19.60;99.90;;;;;;5059448;28;20178;-75
2021/07/19 06:43:09;;;;;;;17.13;9.70;;;19.60;99.90;;;;;;5061548;28;20241;-75
2021/07/19 06:45:38;;;;;;;12.60;8.05;;;19.60;99.90;;;;;;5055241;28;20202;-75
2021/07/19 06:48:05;;;;;;;11.95;9.73;;;19.70;99.90;;;;;;5049865;28;20202;-75
2021/07/19 06:50:32;;;;;;;20.17;11.35;;;19.70;99.90;;;;;;5044028;28;20202;-75
2021/07/19 06:52:59;;;;;;;16.00;9.02;;;19.70;99.90;;;;;;5050585;28;20629;-75
2021/07/19 06:55:26;;;;;;;15.25;9.82;;;19.70;99.90;;;;;;5056373;28;20557;-75
2021/07/19 06:57:53;;;;;;;13.45;9.02;;;19.80;99.90;;;;;;5057990;28;20228;-75
2021/07/19 07:00:22;;;;;;;15.80;9.82;;;19.90;99.90;;;;;;5053794;28;20271;-75
2021/07/19 07:02:51;;;;;;;14.07;9.57;;;19.90;99.90;;;;;;5052400;28;20238;-75
2021/07/19 07:05:18;;;;;;;16.63;10.45;;;20.00;99.90;;;;;;5062179;28;20252;-75
2021/07/19 07:07:45;;;;;;;15.27;9.35;;;20.00;99.90;;;;;;5054032;28;20236;-77
2021/07/19 07:10:12;;;;;;;16.77;9.40;;;19.90;99.90;;;;;;5055690;28;20240;-75
2021/07/19 07:12:42;;;;;;;15.23;9.52;;;19.90;99.90;;;;;;5058988;28;20296;-76
2021/07/19 07:15:10;;;;;;;22.83;10.20;;;19.80;99.90;;;;;;5059405;28;20225;-75
2021/07/19 07:17:40;;;;;;;12.90;9.80;;;19.80;99.90;;;;;;5054468;28;20206;-75
2021/07/19 07:20:10;;;;;;;15.93;9.40;;;19.90;99.90;;;;;;5055986;28;20611;-75
2021/07/19 07:22:37;;;;;;;15.80;8.93;;;20.00;99.90;;;;;;5057144;28;20261;-75
2021/07/19 07:25:06;;;;;;;13.98;9.63;;;20.10;99.90;;;;;;5054061;28;20327;-75
2021/07/19 07:27:34;;;;;;;18.67;11.25;;;20.20;99.90;;;;;;5056969;28;20229;-75
2021/07/19 07:30:01;;;;;;;14.57;9.15;;;20.10;99.90;;;;;;5052181;28;20236;-75
2021/07/19 07:32:28;;;;;;;15.23;10.38;;;20.10;99.90;;;;;;5060509;28;20199;-75
2021/07/19 07:34:55;;;;;;;16.42;9.20;;;20.20;99.90;;;;;;5060428;28;20190;-75
2021/07/19 07:37:23;;;;;;;18.27;9.48;;;20.40;99.90;;;;;;5064144;28;20198;-76
2021/07/19 07:39:50;;;;;;;17.90;9.40;;;20.50;99.90;;;;;;5081498;28;20220;-75
2021/07/19 07:42:18;;;;;;;20.15;9.90;;;20.60;99.90;;;;;;5081337;28;20181;-75
2021/07/19 07:44:45;;;;;;;18.00;10.82;;;20.60;99.90;;;;;;5068739;28;20220;-76
2021/07/19 07:47:12;;;;;;;13.15;9.18;;;20.60;99.90;;;;;;5066962;28;20252;-75
2021/07/19 07:49:40;;;;;;;17.15;10.65;;;20.40;99.90;;;;;;5058820;28;20230;-75
2021/07/19 07:52:08;;;;;;;18.85;11.90;;;20.40;99.90;;;;;;5054328;28;20198;-76
2021/07/19 07:54:36;;;;;;;16.25;10.23;;;20.30;99.90;;;;;;5054372;28;20206;-75
2021/07/19 07:57:04;;;;;;;15.00;9.90;;;20.40;99.90;;;;;;5062565;28;20224;-75
2021/07/19 07:59:31;;;;;;;21.00;10.27;;;20.40;99.90;;;;;;5058239;28;20202;-75
2021/07/19 08:01:59;;;;;;;17.17;11.00;;;20.50;99.90;;;;;;5062168;28;20740;-75
2021/07/19 08:04:28;;;;;;;15.90;10.02;;;20.40;99.90;;;;;;5066507;28;20339;-76
2021/07/19 08:06:55;;;;;;;20.85;11.52;;;20.40;99.90;;;;;;5066518;28;20206;-75
2021/07/19 08:09:22;;;;;;;21.40;11.43;;;20.50;99.90;;;;;;5052934;28;20245;-75
2021/07/19 08:11:51;;;;;;;13.88;10.57;;;20.60;99.90;;;;;;5055122;28;20266;-75
2021/07/19 08:14:18;;;;;;;15.30;10.50;;;20.40;99.90;;;;;;5050982;28;20207;-75
2021/07/19 08:16:45;;;;;;;18.77;12.02;;;20.40;99.90;;;;;;5058502;28;20198;-75
2021/07/19 08:19:12;;;;;;;15.88;10.93;;;20.20;99.90;;;;;;5056581;28;20203;-75
2021/07/19 08:21:41;;;;;;;19.65;9.63;;;20.20;99.90;;;;;;5036059;28;20241;-75
2021/07/19 08:24:09;;;;;;;20.20;10.95;;;20.20;99.90;;;;;;5053550;28;20201;-75
2021/07/19 08:26:36;;;;;;;19.67;11.95;;;20.20;99.90;;;;;;5061059;28;20283;-76
2021/07/19 08:29:06;;;;;;;21.15;12.15;;;20.30;99.90;;;;;;5060610;28;20225;-75
2021/07/19 08:31:33;;;;;;;15.57;10.40;;;20.40;99.90;;;;;;5058040;28;20198;-75
2021/07/19 08:34:01;;;;;;;16.48;11.32;;;20.40;99.90;;;;;;5055352;28;20202;-76
2021/07/19 08:36:28;;;;;;;16.92;11.63;;;20.40;99.90;;;;;;5052373;28;20273;-76
2021/07/19 08:38:54;;;;;;;14.32;9.88;;;20.30;99.90;;;;;;5055309;28;20202;-75
2021/07/19 08:41:21;;;;;;;15.85;9.70;;;20.30;99.90;;;;;;5053996;28;20229;-75
2021/07/19 08:43:48;;;;;;;15.93;9.90;;;20.30;99.90;;;;;;5053612;28;20210;-75
2021/07/19 08:46:17;;;;;;;15.68;10.35;;;20.40;99.90;;;;;;5055858;28;20646;-74
2021/07/19 08:48:45;;;;;;;15.35;11.15;;;20.40;99.90;;;;;;5053130;28;20197;-75
2021/07/19 08:51:13;;;;;;;15.68;9.63;;;20.50;99.90;;;;;;5056226;28;20264;-75
2021/07/19 08:53:40;;;;;;;16.13;10.40;;;20.30;99.90;;;;;;5051625;28;20259;-75
2021/07/19 08:56:08;;;;;;;17.92;10.63;;;20.30;99.90;;;;;;5058522;28;20259;-75
2021/07/19 08:58:36;;;;;;;15.98;10.77;;;20.40;99.90;;;;;;5060568;28;20205;-75
2021/07/19 09:01:04;;;;;;;15.60;10.48;;;20.40;99.90;;;;;;5056241;28;20232;-75
2021/07/19 09:03:32;;;;;;;15.07;10.82;;;20.30;99.90;;;;;;5051508;28;20225;-75
2021/07/19 09:05:59;;;;;;;19.25;12.00;;;20.40;99.90;;;;;;5051781;28;20198;-75
2021/07/19 09:08:26;;;;;;;16.80;10.35;;;20.40;99.90;;;;;;5059434;28;20201;-75
2021/07/19 09:10:53;;;;;;;16.20;10.50;;;20.40;99.90;;;;;;5029127;28;20289;-76
2021/07/19 09:13:22;;;;;;;19.45;11.85;;;20.50;99.90;;;;;;5053260;28;20263;-76
2021/07/19 09:15:53;;;;;;;18.55;9.80;;;20.40;99.90;;;;;;5047193;28;20550;-76
2021/07/19 09:18:24;;;;;;;11.90;8.48;;;20.40;99.90;;;;;;5053752;28;20269;-75
2021/07/19 09:20:53;;;;;;;12.95;8.30;;;20.60;99.90;;;;;;5046945;28;20206;-76
2021/07/19 09:23:28;;;;;;;12.65;8.38;;;20.60;99.90;;;;;;5052865;28;22509;-76
2021/07/19 09:25:56;;;;;;;12.88;7.90;;;20.70;99.90;;;;;;5058990;28;20264;-74
2021/07/19 09:28:29;;;;;;;12.13;7.93;;;20.60;99.90;;;;;;5054769;28;20228;-74
2021/07/19 09:31:04;;;;;;;12.93;8.45;;;20.50;99.90;;;;;;5056893;28;20260;-74
2021/07/19 09:33:31;;;;;;;12.35;8.32;;;20.50;99.90;;;;;;5060960;28;20227;-75
2021/07/19 09:36:02;;;;;;;13.82;8.65;;;20.60;99.90;;;;;;5049066;28;20256;-74
2021/07/19 09:38:30;;;;;;;13.75;8.60;;;20.70;99.90;;;;;;5054204;28;20297;-76
2021/07/19 09:41:00;;;;;;;11.10;7.47;;;20.70;99.90;;;;;;5054220;28;20205;-76
2021/07/19 09:43:30;;;;;;;12.50;8.05;;;20.90;99.90;;;;;;5053552;28;20205;-75
2021/07/19 09:45:58;;;;;;;12.40;8.57;;;21.00;99.90;;;;;;5053067;28;20206;-75
2021/07/19 09:48:24;;;;;;;16.73;8.18;;;21.00;99.90;;;;;;5064559;28;20205;-76
2021/07/19 09:50:53;;;;;;;13.65;8.27;;;21.10;99.90;;;;;;5065322;28;20251;-74
2021/07/19 09:53:33;;;;;;;13.45;8.18;;;21.20;99.90;;;;;;5071205;28;20220;-76
2021/07/19 09:56:12;;;;;;;15.15;7.75;;;21.30;99.90;;;;;;5070860;28;20207;-76
2021/07/19 09:58:39;;;;;;;15.55;9.15;;;21.30;99.90;;;;;;5071780;28;20229;-76
2021/07/19 10:01:06;;;;;;;15.48;9.52;;;21.20;99.90;;;;;;5058304;28;20202;-76
2021/07/19 10:08:04;;;;;;;14.05;8.95;;;21.20;99.90;;;;;;5103008;28;20208;-76
2021/07/19 10:10:36;;;;;;;13.98;9.10;;;21.20;99.90;;;;;;5109519;28;20192;-76
2021/07/19 10:13:05;;;;;;;14.82;8.15;;;21.20;99.90;;;;;;5108079;28;20226;-76
2021/07/19 10:15:32;;;;;;;11.45;8.77;;;21.10;99.90;;;;;;5103471;28;20238;-76
2021/07/19 10:18:02;;;;;;;11.70;8.10;;;21.00;99.90;;;;;;5107028;28;20200;-76
2021/07/19 10:20:31;;;;;;;14.30;8.85;;;21.20;99.90;;;;;;5104305;28;20254;-76
2021/07/19 10:22:58;;;;;;;14.10;8.75;;;21.20;99.90;;;;;;5102283;28;20228;-76
2021/07/19 10:25:25;;;;;;;17.88;8.77;;;21.20;99.90;;;;;;5102891;28;20255;-76
2021/07/19 10:27:52;;;;;;;16.70;9.75;;;21.20;99.90;;;;;;5103997;28;20204;-76
2021/07/19 10:30:19;;;;;;;13.55;9.30;;;21.30;99.90;;;;;;5105957;28;20231;-76
2021/07/19 10:32:46;;;;;;;15.80;9.52;;;21.40;99.90;;;;;;5104967;28;20204;-76
2021/07/19 10:35:15;;;;;;;18.05;9.48;;;21.40;99.90;;;;;;5108725;28;20196;-76
2021/07/19 10:37:51;;;;;;;15.82;9.60;;;21.60;99.90;;;;;;5101922;28;20213;-76
2021/07/19 10:40:28;;;;;;;15.45;9.45;;;21.80;99.90;;;;;;5134959;27;20204;-76
2021/07/19 10:43:06;;;;;;;15.18;9.25;;;21.80;99.90;;;;;;5110390;28;20211;-76
2021/07/19 10:45:40;;;;;;;12.98;8.95;;;22.00;99.90;;;;;;5107776;28;20275;-76
2021/07/19 10:48:07;;;;;;;13.65;9.27;;;22.10;99.90;;;;;;5110361;28;20200;-76
2021/07/19 10:50:39;;;;;;;17.80;10.13;;;22.20;99.90;;;;;;5112773;28;20200;-76
2021/07/19 10:53:17;;;;;;;16.17;9.35;;;22.30;99.90;;;;;;5108286;28;20209;-76
2021/07/19 10:55:45;;;;;;;18.60;9.50;;;22.50;99.90;;;;;;5102981;28;20644;-76
2021/07/19 10:58:17;;;;;;;16.90;9.23;;;22.40;99.90;;;;;;5103179;28;20204;-76
2021/07/19 11:00:46;;;;;;;15.75;10.05;;;22.40;99.90;;;;;;5107192;28;20201;-76
2021/07/19 11:03:15;;;;;;;18.75;10.45;;;22.20;99.90;;;;;;5100872;28;20243;-76
2021/07/19 11:05:45;;;;;;;14.98;9.07;;;22.10;99.90;;;;;;5107724;28;20385;-76
2021/07/19 11:08:23;;;;;;;24.95;8.57;;;22.20;99.90;;;;;;5107265;28;20207;-76
2021/07/19 11:10:52;;;;;;;15.38;9.30;;;22.20;99.90;;;;;;5108419;28;20235;-76
2021/07/19 11:13:27;;;;;;;17.27;9.65;;;22.20;99.90;;;;;;5103056;28;20227;-76
2021/07/19 11:15:55;;;;;;;14.70;10.25;;;22.20;99.90;;;;;;5091461;28;20622;-76
2021/07/19 11:18:26;;;;;;;15.70;8.98;;;22.10;99.90;;;;;;5088512;28;20208;-76
2021/07/19 11:20:55;;;;;;;20.77;9.88;;;22.10;99.90;;;;;;5088535;28;20296;-76
2021/07/19 11:23:31;;;;;;;14.13;9.23;;;22.10;99.90;;;;;;5088921;28;20221;-76
2021/07/19 11:25:59;;;;;;;13.77;9.32;;;22.30;99.90;;;;;;5088323;28;20363;-76
2021/07/19 11:28:29;;;;;;;11.65;8.55;;;22.40;99.90;;;;;;5096196;28;20201;-76
2021/07/19 11:31:08;;;;;;;12.48;7.70;;;22.50;99.90;;;;;;5088799;28;20258;-76
2021/07/19 11:33:37;;;;;;;16.45;9.68;;;22.60;99.90;;;;;;5088833;28;20767;-76
2021/07/19 11:36:17;;;;;;;12.60;8.63;;;22.50;99.90;;;;;;5094807;28;20200;-76
2021/07/19 11:38:46;;;;;;;14.02;8.75;;;22.60;99.90;;;;;;5087648;28;20213;-76
2021/07/19 11:41:17;;;;;;;10.98;8.48;;;22.70;99.90;;;;;;5091928;28;20656;-76
2021/07/19 11:43:45;;;;;;;14.77;8.85;;;22.70;99.90;;;;;;5087570;28;20228;-76
2021/07/19 11:46:12;;;;;;;14.77;8.77;;;22.70;99.90;;;;;;5093707;28;20231;-76
2021/07/19 11:48:43;;;;;;;15.15;8.18;;;22.60;99.90;;;;;;5088103;28;20197;-76
2021/07/19 11:51:10;;;;;;;11.45;8.15;;;22.50;99.90;;;;;;5088559;28;20268;-76
2021/07/19 11:53:44;;;;;;;15.85;8.10;;;22.50;99.90;;;;;;5088838;28;20197;-76
2021/07/19 11:56:12;;;;;;;12.48;8.27;;;22.60;99.90;;;;;;5093889;28;20265;-76
2021/07/19 11:58:43;;;;;;;14.13;8.82;;;22.50;99.90;;;;;;5099304;28;20204;-76
2021/07/19 12:01:11;;;;;;;15.82;9.18;;;22.60;99.90;;;;;;5102503;28;20288;-75
2021/07/19 12:03:38;;;;;;;15.10;8.75;;;22.60;99.90;;;;;;5093628;28;20233;-76
2021/07/19 12:06:05;;;;;;;17.33;8.77;;;22.60;99.90;;;;;;5088658;28;20201;-76
2021/07/19 12:08:34;;;;;;;13.93;8.73;;;22.50;99.90;;;;;;5088194;28;20224;-76
2021/07/19 12:11:02;;;;;;;14.15;8.00;;;22.50;99.90;;;;;;5098628;28;20227;-76
2021/07/19 12:13:36;;;;;;;13.00;7.90;;;22.70;99.90;;;;;;5088160;28;20204;-76
2021/07/19 12:16:04;;;;;;;13.70;9.18;;;22.80;99.90;;;;;;5087460;28;20209;-76
2021/07/19 12:18:32;;;;;;;14.25;8.63;;;23.00;99.90;;;;;;5087125;28;20205;-76
2021/07/19 12:21:01;;;;;;;13.32;9.15;;;23.00;99.90;;;;;;5088238;28;20201;-75
2021/07/19 12:23:39;;;;;;;12.35;9.00;;;23.10;99.90;;;;;;5091435;28;20231;-75
2021/07/19 12:28:58;;;;;;;13.48;10.05;;;23.10;99.90;;;;;;5648976;22;20242;-77
2021/07/19 12:31:32;;;;;;;15.68;9.63;;;23.10;99.90;;;;;;5016661;28;20195;-77
2021/07/19 12:36:46;;;;;;;16.33;10.10;;;23.10;99.90;;;;;;5009099;28;20203;-77
2021/07/19 12:39:17;;;;;;;13.40;9.10;;;23.20;99.90;;;;;;5012476;28;20210;-77
2021/07/19 12:41:47;;;;;;;17.40;9.68;;;23.30;99.90;;;;;;5007688;28;20216;-77
2021/07/19 12:44:16;;;;;;;12.65;9.07;;;23.40;99.90;;;;;;5014148;28;20282;-77
2021/07/19 12:46:45;;;;;;;18.55;10.07;;;23.30;99.90;;;;;;5019986;28;20198;-77
2021/07/19 12:49:12;;;;;;;15.27;10.30;;;23.30;99.90;;;;;;5010043;28;20231;-77
2021/07/19 12:51:41;;;;;;;16.63;9.85;;;23.10;99.90;;;;;;5014526;28;20188;-76
2021/07/19 12:54:10;;;;;;;15.85;9.98;;;23.10;99.90;;;;;;5027498;28;20184;-76
2021/07/19 12:56:41;;;;;;;16.13;9.93;;;23.20;99.90;;;;;;5030873;28;20187;-77
2021/07/19 12:59:11;;;;;;;12.63;9.30;;;23.10;99.90;;;;;;5022129;28;20235;-77
2021/07/19 13:01:42;;;;;;;15.93;10.63;;;23.10;99.90;;;;;;5008612;28;20619;-77
2021/07/19 13:04:10;;;;;;;15.88;10.40;;;23.00;99.90;;;;;;5008444;28;20698;-77
2021/07/19 13:06:39;;;;;;;14.80;9.35;;;22.90;99.90;;;;;;5008712;28;20219;-77
2021/07/19 13:09:10;;;;;;;16.88;9.32;;;22.90;99.90;;;;;;5010087;28;20206;-77
2021/07/19 13:11:38;;;;;;;14.50;9.90;;;23.00;99.90;;;;;;5013841;28;20226;-77
2021/07/19 13:14:13;;;;;;;19.17;11.55;;;23.10;99.90;;;;;;5011679;28;20200;-77
2021/07/19 13:16:42;;;;;;;19.00;11.02;;;23.20;99.90;;;;;;5013325;28;20211;-77
2021/07/19 13:19:09;;;;;;;16.95;10.30;;;23.20;99.90;;;;;;5014464;28;20200;-77
2021/07/19 13:21:36;;;;;;;17.00;10.13;;;23.10;99.90;;;;;;5015212;28;20566;-77
2021/07/19 13:24:14;;;;;;;18.13;10.93;;;23.10;99.90;;;;;;5018658;28;20230;-78